createdAt,value
2022-10-17T00:11:41.835Z,3892
2022-10-17T00:41:38.127Z,3892
2022-10-17T01:11:33.710Z,3890
2022-10-17T01:41:29.556Z,3890
2022-10-17T02:11:26.004Z,3890
2022-10-17T02:41:22.160Z,3888
2022-10-17T03:11:18.348Z,3888
2022-10-17T03:41:14.398Z,3888
2022-10-17T04:11:09.717Z,3886
2022-10-17T04:41:06.502Z,3886
2022-10-17T05:11:02.548Z,3886
2022-10-17T05:40:58.246Z,3884
2022-10-17T06:10:53.694Z,3884
2022-10-17T06:40:50.085Z,3884
2022-10-17T07:10:45.986Z,3884
2022-10-17T07:40:42.409Z,3884
2022-10-17T08:10:38.813Z,3884
2022-10-17T08:40:34.579Z,3884
2022-10-17T09:10:30.005Z,3884
2022-10-17T09:40:26.944Z,3882
2022-10-17T10:10:22.990Z,3884
2022-10-17T10:40:18.688Z,3882
2022-10-17T11:10:15.039Z,3882
2022-10-17T11:40:10.512Z,3880
2022-10-17T12:10:06.228Z,3880
2022-10-17T12:40:03.166Z,3880
2022-10-17T13:09:58.702Z,3880
2022-10-17T13:39:55.019Z,3878
2022-10-17T14:09:51.284Z,3878
2022-10-17T14:39:46.824Z,3878
2022-10-17T15:09:42.861Z,3876
2022-10-17T15:39:39.407Z,3876
2022-10-17T16:09:34.690Z,3876
2022-10-17T16:39:31.476Z,3874
2022-10-17T17:09:26.848Z,3874
2022-10-17T17:39:23.299Z,3874
2022-10-17T18:09:19.071Z,3872
2022-10-17T18:39:15.634Z,3872
2022-10-17T19:09:11.675Z,3872
2022-10-17T19:39:07.246Z,3870
2022-10-17T20:09:02.751Z,3870
2022-10-17T20:38:59.188Z,3868
2022-10-17T21:08:55.829Z,3868
2022-10-17T21:38:51.863Z,3868
2022-10-17T22:08:47.939Z,3868
2022-10-17T22:38:43.842Z,3866
2022-10-17T23:08:39.640Z,3866
2022-10-17T23:38:35.775Z,3864
